AYWK/WWK METAR and TAF weather

Enter ICAO airport designator
Station Type Date Time Source
AYWK METAR 2018/02/16 00:00 UTC NOAA

AYWK 160000Z 00000KT 9999 FEW018 SCT040 OVC140 27/25 Q1010


Station Type Date Time Source
AYWK Decoded METAR 2018/02/16 00:00 UTC NOAA

Wewak, Papua New Guinea (AYWK) 03-34S 143-38E
Feb 15, 2018 - 07:00 PM EST / 2018.02.16 0000 UTC
Wind: Calm:0
Visibility: greater than 7 mile(s):0
Sky conditions: overcast
Temperature: 80 F (27 C)
Dew Point: 77 F (25 C)
Relative Humidity: 88%
Pressure (altimeter): 29.83 in. Hg (1010 hPa)
ob: AYWK 160000Z 00000KT 9999 FEW018 SCT040 OVC140 27/25 Q1010
cycle: 0

Station Type Date Time Source
AYWK TAF 2015/08/19 08:15 UTC NOAA

TAF AYWK 190552Z 1908/1920 09010KT 9999 FEW020 SCT140 Q 1010 1012 1011 1009


Example: see airport list